Time;durP1;ratioP1;P1;durP2;ratioP2;P2;SDS_P1;SDS_P2;PMS_P1;PMS_P2;Temp;Humidity;BMP_temperature;BMP_pressure;BME280_temperature;BME280_humidity;BME280_pressure;Samples;Min_cycle;Max_cycle;Signal;HPM_P1;HPM_P2
2022/08/14 00:02:04;;;;;;;0.52;0.52;;;;;;;24.00;53.94;101280.25;5064703;28;20124;-84
2022/08/14 00:04:32;;;;;;;0.10;0.10;;;;;;;23.99;54.06;101279.41;5069983;28;20017;-86
2022/08/14 00:06:58;;;;;;;0.10;0.10;;;;;;;23.96;54.18;101274.19;5070035;28;20637;-88
2022/08/14 00:09:25;;;;;;;0.10;0.10;;;;;;;23.94;53.98;101267.16;5067768;28;20032;-86
2022/08/14 00:11:51;;;;;;;0.10;0.10;;;;;;;23.92;54.37;101259.16;5069206;28;20029;-86
2022/08/14 00:14:17;;;;;;;0.35;0.20;;;;;;;23.89;54.42;101253.94;5069383;28;20066;-85
2022/08/14 00:16:44;;;;;;;0.10;0.10;;;;;;;23.87;54.46;101254.00;5068365;28;20028;-85
2022/08/14 00:19:11;;;;;;;0.10;0.10;;;;;;;23.85;54.36;101250.56;5066799;28;20072;-84
2022/08/14 00:21:38;;;;;;;0.45;0.20;;;;;;;23.83;54.59;101262.47;5067325;28;20037;-84
2022/08/14 00:24:04;;;;;;;0.10;0.10;;;;;;;23.82;54.43;101250.78;5070051;28;20083;-84
2022/08/14 00:26:30;;;;;;;0.40;0.40;;;;;;;23.79;54.19;101251.00;5071311;28;20035;-86
2022/08/14 00:28:56;;;;;;;0.00;0.00;;;;;;;23.78;54.47;101253.81;5071803;28;20028;-85
2022/08/14 00:31:23;;;;;;;0.10;0.10;;;;;;;23.74;54.13;101248.59;5070056;28;20028;-87
2022/08/14 00:33:49;;;;;;;0.17;0.17;;;;;;;23.71;54.87;101246.13;5069021;28;20029;-86
2022/08/14 00:36:15;;;;;;;0.00;0.00;;;;;;;23.67;54.49;101241.88;5073653;28;20028;-86
2022/08/14 00:38:41;;;;;;;0.40;0.40;;;;;;;23.65;55.14;101232.13;5101214;22;20075;-77
2022/08/14 00:41:08;;;;;;;0.10;0.10;;;;;;;23.63;55.02;101243.06;5081144;28;20401;-77
2022/08/14 00:43:35;;;;;;;0.50;0.50;;;;;;;23.61;55.39;101241.44;5077552;28;20056;-77
2022/08/14 00:46:07;;;;;;;0.28;0.28;;;;;;;23.58;55.34;101242.53;5078261;28;20124;-78
2022/08/14 00:48:35;;;;;;;0.10;0.10;;;;;;;23.55;55.51;101237.31;5083405;28;20021;-78
2022/08/14 00:51:02;;;;;;;0.00;0.00;;;;;;;23.52;55.46;101234.84;5078367;28;20289;-78
2022/08/14 00:53:28;;;;;;;0.13;0.13;;;;;;;23.50;55.31;101234.06;5083631;28;20119;-78
2022/08/14 00:55:56;;;;;;;0.00;0.00;;;;;;;23.48;55.50;101231.47;5076113;28;20035;-78
2022/08/14 00:58:30;;;;;;;0.10;0.10;;;;;;;23.45;56.16;101231.66;5080506;28;20056;-78
2022/08/14 01:00:59;;;;;;;0.10;0.10;;;;;;;23.43;55.49;101228.22;5077367;28;20020;-77
2022/08/14 01:03:28;;;;;;;0.63;0.30;;;;;;;23.40;55.64;101223.00;5080982;28;20310;-79
2022/08/14 01:05:56;;;;;;;0.65;0.65;;;;;;;23.36;55.38;101222.34;5080981;28;20033;-77
2022/08/14 01:08:26;;;;;;;0.10;0.10;;;;;;;23.33;55.17;101221.69;5076153;28;20028;-78
2022/08/14 01:10:55;;;;;;;0.10;0.10;;;;;;;23.27;55.25;101213.03;5078589;28;20134;-78
2022/08/14 01:13:29;;;;;;;0.00;0.00;;;;;;;23.30;55.46;101205.69;5076635;28;20520;-77
2022/08/14 01:15:57;;;;;;;0.43;0.43;;;;;;;23.25;55.45;101204.19;5073641;28;20047;-78
2022/08/14 01:21:14;;;;;;;0.10;0.10;;;;;;;23.19;55.79;101193.78;5078645;28;20082;-77
2022/08/14 01:23:45;;;;;;;0.08;0.08;;;;;;;23.17;55.81;101195.72;5078471;28;20025;-78
2022/08/14 01:26:14;;;;;;;0.20;0.20;;;;;;;23.13;55.30;101194.16;5079967;28;20048;-77
2022/08/14 01:28:41;;;;;;;0.10;0.10;;;;;;;23.09;55.50;101192.63;5084860;28;20043;-77
2022/08/14 01:31:14;;;;;;;0.25;0.25;;;;;;;23.09;55.87;101187.22;5074600;28;20032;-77
2022/08/14 01:33:43;;;;;;;0.00;0.00;;;;;;;23.06;55.36;101192.84;5079152;28;20059;-78
2022/08/14 01:36:10;;;;;;;0.10;0.10;;;;;;;23.04;55.67;101178.56;5078064;28;20517;-77
2022/08/14 01:38:39;;;;;;;0.20;0.20;;;;;;;23.03;55.24;101182.22;5081773;28;20032;-78
2022/08/14 01:41:08;;;;;;;0.10;0.10;;;;;;;23.01;55.55;101179.63;5081124;28;20032;-78
2022/08/14 01:46:45;;;;;;;0.00;0.00;;;;;;;22.99;55.74;101180.69;5078229;27;20405;-77
2022/08/14 01:49:14;;;;;;;0.10;0.10;;;;;;;22.96;55.95;101172.81;5068948;28;20036;-77
2022/08/14 01:51:43;;;;;;;0.35;0.35;;;;;;;22.92;56.10;101173.00;5068155;28;20540;-78
2022/08/14 01:54:12;;;;;;;0.45;0.32;;;;;;;22.90;56.02;101172.25;5068167;28;20414;-77
2022/08/14 01:56:39;;;;;;;0.10;0.10;;;;;;;22.86;56.07;101176.13;5064640;28;20021;-78
2022/08/14 02:01:42;;;;;;;0.10;0.10;;;;;;;22.83;55.78;101170.03;5063748;28;20757;-77
2022/08/14 02:04:09;;;;;;;0.30;0.30;;;;;;;22.81;55.93;101172.00;5067037;28;20041;-77
2022/08/14 02:06:36;;;;;;;0.65;0.35;;;;;;;22.78;55.78;101165.84;5061609;28;20029;-77
2022/08/14 02:09:04;;;;;;;0.35;0.35;;;;;;;22.78;55.99;101170.38;5058055;28;20107;-77
2022/08/14 02:11:30;;;;;;;0.10;0.10;;;;;;;22.77;55.63;101166.78;5056694;28;20045;-77
2022/08/14 02:14:00;;;;;;;0.47;0.47;;;;;;;22.77;55.66;101164.09;5056778;28;20030;-77
2022/08/14 02:16:31;;;;;;;0.55;0.55;;;;;;;22.77;55.20;101165.94;5058255;28;20041;-77
2022/08/14 02:19:00;;;;;;;0.10;0.10;;;;;;;22.74;55.46;101164.31;5059974;28;20033;-77
2022/08/14 02:21:30;;;;;;;0.10;0.10;;;;;;;22.73;55.20;101161.69;5058037;28;20025;-77
2022/08/14 02:23:58;;;;;;;0.20;0.20;;;;;;;22.72;55.22;101154.56;5060315;28;20048;-78
2022/08/14 02:26:27;;;;;;;0.10;0.10;;;;;;;22.71;55.25;101155.53;5059434;28;20033;-77
2022/08/14 02:28:58;;;;;;;0.10;0.10;;;;;;;22.69;55.16;101144.84;5058966;28;20614;-77
2022/08/14 02:31:31;;;;;;;0.00;0.00;;;;;;;22.68;55.16;101155.72;5055733;28;20134;-77
2022/08/14 02:33:59;;;;;;;0.20;0.20;;;;;;;22.66;55.37;101154.97;5059367;28;20029;-77
2022/08/14 02:36:29;;;;;;;0.20;0.20;;;;;;;22.64;55.10;101154.22;5056079;28;20398;-77
2022/08/14 02:38:56;;;;;;;0.22;0.22;;;;;;;22.61;55.05;101148.03;5057913;28;20029;-77
2022/08/14 02:41:22;;;;;;;0.20;0.20;;;;;;;22.61;54.84;101145.34;5058181;28;20047;-77
2022/08/14 02:43:49;;;;;;;0.10;0.10;;;;;;;22.59;54.70;101147.28;5058611;28;20064;-77
2022/08/14 02:46:15;;;;;;;0.10;0.10;;;;;;;22.57;55.19;101146.50;5060025;28;20029;-77
2022/08/14 02:48:42;;;;;;;0.00;0.00;;;;;;;22.54;54.97;101143.16;5060653;28;20029;-77
2022/08/14 02:51:12;;;;;;;0.63;0.63;;;;;;;22.51;55.00;101144.22;5055393;28;20086;-77
2022/08/14 02:53:41;;;;;;;0.15;0.15;;;;;;;22.48;55.30;101146.25;5057372;28;20025;-78
2022/08/14 02:56:09;;;;;;;0.45;0.45;;;;;;;22.44;55.10;101143.75;5056835;28;20029;-77
2022/08/14 02:58:38;;;;;;;0.43;0.43;;;;;;;22.42;55.28;101140.28;5059584;28;20021;-77
2022/08/14 03:01:07;;;;;;;0.00;0.00;;;;;;;22.40;55.42;101138.66;5052995;28;20022;-77
2022/08/14 03:03:36;;;;;;;0.20;0.20;;;;;;;22.39;55.31;101134.22;5055257;28;20033;-76
2022/08/14 03:06:04;;;;;;;0.10;0.10;;;;;;;22.37;55.48;101136.09;5055597;28;20030;-77
2022/08/14 03:08:32;;;;;;;0.35;0.35;;;;;;;22.35;55.57;101128.13;5056184;28;20084;-77
2022/08/14 03:11:00;;;;;;;0.03;0.03;;;;;;;22.34;55.55;101125.53;5059290;28;20082;-77
2022/08/14 03:13:27;;;;;;;0.10;0.10;;;;;;;22.32;55.13;101122.03;5039113;28;20048;-77
2022/08/14 03:15:53;;;;;;;0.40;0.40;;;;;;;22.27;55.46;101128.63;5045509;28;20028;-77
2022/08/14 03:18:22;;;;;;;0.13;0.13;;;;;;;22.25;55.58;101122.44;5045949;28;20093;-77
2022/08/14 03:20:49;;;;;;;0.10;0.10;;;;;;;22.24;55.33;101123.44;5041080;28;20044;-77
2022/08/14 03:23:17;;;;;;;0.13;0.13;;;;;;;22.21;55.61;101126.31;5044959;28;20033;-77
2022/08/14 03:25:44;;;;;;;0.00;0.00;;;;;;;22.20;55.67;101118.34;5042042;28;20041;-77
2022/08/14 03:28:11;;;;;;;0.38;0.38;;;;;;;22.17;55.70;101119.41;5042754;28;20453;-77
2022/08/14 03:30:38;;;;;;;0.20;0.20;;;;;;;22.14;55.93;101119.59;5038990;28;20025;-77
2022/08/14 03:33:06;;;;;;;0.10;0.10;;;;;;;22.12;55.56;101116.13;5039257;28;20033;-77
2022/08/14 03:35:33;;;;;;;0.63;0.63;;;;;;;22.10;55.85;101118.06;5042862;28;20116;-77
2022/08/14 03:38:09;;;;;;;0.10;0.10;;;;;;;22.12;55.86;101116.13;5041030;28;20025;-77
2022/08/14 03:40:37;;;;;;;0.57;0.38;;;;;;;22.06;55.88;101119.22;5043940;28;20049;-77
2022/08/14 03:43:05;;;;;;;0.50;0.50;;;;;;;22.03;55.89;101111.31;5037995;28;20044;-77
2022/08/14 03:45:34;;;;;;;1.00;1.00;;;;;;;22.00;55.91;101112.38;5041634;28;20040;-78
2022/08/14 03:48:03;;;;;;;0.43;0.43;;;;;;;21.97;55.77;101116.13;5039541;28;20100;-77
2022/08/14 03:50:31;;;;;;;0.50;0.50;;;;;;;21.94;56.36;101118.16;5042580;28;20017;-77
2022/08/14 03:52:59;;;;;;;0.10;0.10;;;;;;;21.92;56.57;101120.97;5040748;28;20033;-77
2022/08/14 03:55:27;;;;;;;0.03;0.03;;;;;;;21.89;56.62;101121.16;5040106;28;20036;-77
2022/08/14 03:57:54;;;;;;;0.10;0.10;;;;;;;21.87;56.53;101123.09;5045611;28;20487;-77
2022/08/14 04:00:21;;;;;;;0.10;0.10;;;;;;;21.84;56.69;101117.88;5039835;28;20043;-77
2022/08/14 04:02:47;;;;;;;0.35;0.35;;;;;;;21.81;56.95;101110.00;5039934;28;20033;-77
2022/08/14 04:05:14;;;;;;;0.32;0.25;;;;;;;21.79;57.21;101114.59;5041566;28;20166;-78
2022/08/14 04:07:40;;;;;;;0.25;0.25;;;;;;;21.78;57.08;101102.09;5040854;28;20154;-77
2022/08/14 04:10:08;;;;;;;0.10;0.10;;;;;;;21.76;57.10;101112.13;5039904;28;20033;-78
2022/08/14 04:12:35;;;;;;;0.13;0.13;;;;;;;21.74;57.51;101116.72;5041966;28;20407;-78
2022/08/14 04:15:01;;;;;;;0.30;0.30;;;;;;;21.72;57.44;101118.66;5042349;28;20704;-78
2022/08/14 04:17:28;;;;;;;0.17;0.17;;;;;;;21.69;57.52;101116.16;5042299;28;20073;-78
2022/08/14 04:19:54;;;;;;;0.10;0.10;;;;;;;21.67;57.64;101108.19;5044890;28;20025;-77
2022/08/14 04:22:21;;;;;;;0.10;0.10;;;;;;;21.67;57.68;101104.59;5038411;28;20037;-78
2022/08/14 04:24:47;;;;;;;0.38;0.38;;;;;;;21.67;57.61;101109.97;5037799;28;20037;-77
2022/08/14 04:27:14;;;;;;;0.10;0.10;;;;;;;21.67;57.49;101096.50;5039212;28;20155;-78
2022/08/14 04:29:42;;;;;;;1.27;1.17;;;;;;;21.65;57.50;101102.84;5042821;28;20018;-77
2022/08/14 04:32:09;;;;;;;0.32;0.32;;;;;;;21.64;57.64;101106.50;5041921;28;20025;-78
2022/08/14 04:34:40;;;;;;;1.13;1.13;;;;;;;21.63;57.31;101099.41;5039883;28;20030;-78
2022/08/14 04:45:42;;;;;;;0.20;0.20;;;;;;;21.59;57.68;101091.59;5042507;28;20411;-78
2022/08/14 04:48:13;;;;;;;0.20;0.20;;;;;;;21.59;57.67;101092.44;5045181;28;20325;-78
2022/08/14 04:53:25;;;;;;;0.13;0.13;;;;;;;21.59;57.16;101070.88;5006146;28;21021;-78
2022/08/14 04:55:52;;;;;;;0.43;0.43;;;;;;;21.60;56.96;101069.94;4996670;28;20026;-78
2022/08/14 04:58:21;;;;;;;0.08;0.08;;;;;;;21.62;56.64;101065.31;5003473;28;20029;-77
2022/08/14 05:00:49;;;;;;;0.10;0.10;;;;;;;21.65;56.67;101067.81;4991053;28;20035;-78
2022/08/14 05:03:19;;;;;;;0.43;0.43;;;;;;;21.67;56.81;101066.84;4991611;28;20035;-78
2022/08/14 05:05:47;;;;;;;0.45;0.45;;;;;;;21.69;56.64;101075.72;4992498;28;20032;-78
2022/08/14 05:08:13;;;;;;;0.75;0.75;;;;;;;21.71;56.83;101079.16;4996160;28;20030;-78
2022/08/14 05:10:42;;;;;;;0.03;0.03;;;;;;;21.73;56.86;101079.94;4992511;28;20030;-77
2022/08/14 05:13:09;;;;;;;0.38;0.38;;;;;;;21.73;56.79;101071.84;4986301;28;20514;-78
2022/08/14 05:15:38;;;;;;;0.28;0.28;;;;;;;21.77;56.97;101065.28;4984753;28;20043;-78
2022/08/14 05:18:11;;;;;;;0.20;0.20;;;;;;;21.80;57.25;101065.97;4993014;28;20067;-78
2022/08/14 05:20:39;;;;;;;0.73;0.73;;;;;;;21.81;57.16;101074.94;4999919;28;20031;-78
2022/08/14 05:23:06;;;;;;;0.52;0.52;;;;;;;21.83;57.01;101075.69;4987890;28;20035;-77
2022/08/14 05:25:34;;;;;;;0.10;0.10;;;;;;;21.86;57.27;101067.41;4995006;28;20035;-77
2022/08/14 05:28:11;;;;;;;0.17;0.17;;;;;;;21.94;57.05;101069.59;4995804;28;20034;-77
2022/08/14 05:30:43;;;;;;;0.10;0.10;;;;;;;21.92;57.00;101067.00;4986759;28;20019;-77
2022/08/14 05:33:09;;;;;;;0.20;0.20;;;;;;;21.94;57.57;101064.22;4984458;28;20027;-77
2022/08/14 05:35:36;;;;;;;0.08;0.08;;;;;;;21.98;57.29;101068.44;4987438;28;20078;-77
2022/08/14 05:38:08;;;;;;;0.10;0.10;;;;;;;22.04;57.76;101062.63;4985699;28;20041;-77
2022/08/14 05:40:34;;;;;;;0.10;0.10;;;;;;;22.04;57.09;101059.94;4991195;28;20452;-77
2022/08/14 05:43:01;;;;;;;0.10;0.10;;;;;;;22.09;57.20;101062.34;5002178;28;20030;-77
2022/08/14 05:45:28;;;;;;;0.43;0.43;;;;;;;22.12;57.09;101068.41;4985391;28;20431;-77
2022/08/14 05:47:54;;;;;;;0.22;0.22;;;;;;;22.16;57.08;101062.81;4990892;28;20091;-78
2022/08/14 05:50:20;;;;;;;2.13;0.45;;;;;;;22.19;57.12;101066.16;4992620;28;21805;-78
2022/08/14 05:52:48;;;;;;;0.20;0.20;;;;;;;22.23;56.70;101064.13;4994185;28;20057;-78
2022/08/14 05:55:15;;;;;;;0.10;0.10;;;;;;;22.27;56.80;101061.16;4982765;28;20047;-77
2022/08/14 05:57:47;;;;;;;0.00;0.00;;;;;;;22.35;56.58;101063.31;4994443;28;20400;-78
2022/08/14 06:00:15;;;;;;;0.08;0.08;;;;;;;22.36;56.58;101062.38;4987538;28;20110;-78
2022/08/14 06:02:42;;;;;;;0.10;0.10;;;;;;;22.42;56.34;101059.28;4989555;28;20022;-78
2022/08/14 06:05:08;;;;;;;0.10;0.10;;;;;;;22.46;56.33;101063.50;4973069;28;20030;-77
2022/08/14 06:07:36;;;;;;;0.05;0.05;;;;;;;22.51;56.28;101063.22;4974552;28;20046;-78
2022/08/14 06:10:05;;;;;;;0.20;0.20;;;;;;;22.54;55.93;101057.63;4974981;28;20038;-78
2022/08/14 06:12:31;;;;;;;0.05;0.05;;;;;;;22.57;55.92;101057.41;4972881;28;20054;-76
2022/08/14 06:14:58;;;;;;;0.10;0.10;;;;;;;22.62;56.11;101059.78;4967015;28;20031;-77
2022/08/14 06:17:24;;;;;;;0.00;0.00;;;;;;;22.67;56.04;101064.88;4987345;28;20121;-77
2022/08/14 06:19:51;;;;;;;0.00;0.00;;;;;;;22.70;56.00;101054.72;4974834;28;21029;-78
2022/08/14 06:22:17;;;;;;;0.10;0.10;;;;;;;22.76;56.32;101056.16;4975084;28;20742;-78
2022/08/14 06:24:43;;;;;;;0.00;0.00;;;;;;;22.79;55.93;101050.53;4982885;28;20039;-78
2022/08/14 06:27:09;;;;;;;0.40;0.40;;;;;;;22.84;56.04;101053.81;4977818;28;20054;-78
2022/08/14 06:29:37;;;;;;;0.10;0.10;;;;;;;22.89;56.05;101051.66;4976966;28;20045;-78
2022/08/14 06:32:03;;;;;;;0.15;0.15;;;;;;;22.94;56.10;101049.50;4975578;28;20435;-78
2022/08/14 06:34:30;;;;;;;0.82;0.82;;;;;;;23.01;55.96;101049.06;4974966;28;20092;-78
2022/08/14 06:36:56;;;;;;;0.75;0.75;;;;;;;23.04;56.46;101057.84;4978261;28;20041;-78
2022/08/14 06:39:23;;;;;;;0.40;0.40;;;;;;;23.11;55.97;101047.44;4988016;22;20043;-82
2022/08/14 06:41:50;;;;;;;0.15;0.15;;;;;;;23.16;56.28;101049.88;4974382;28;21387;-82
2022/08/14 06:44:16;;;;;;;0.10;0.10;;;;;;;23.22;55.37;101044.88;4976609;28;20031;-84
2022/08/14 06:46:42;;;;;;;0.20;0.20;;;;;;;23.26;55.98;101053.66;4981012;28;20396;-82
2022/08/14 06:49:09;;;;;;;0.52;0.52;;;;;;;23.28;55.98;101046.31;5000026;28;20449;-81
2022/08/14 06:51:35;;;;;;;0.10;0.10;;;;;;;23.35;55.38;101044.91;4994695;28;20031;-82
2022/08/14 06:54:01;;;;;;;0.77;0.73;;;;;;;23.43;55.96;101038.94;5000491;28;20045;-83
2022/08/14 06:56:27;;;;;;;0.60;0.60;;;;;;;23.46;55.05;101037.84;4997766;28;20047;-83
2022/08/14 06:58:53;;;;;;;0.20;0.20;;;;;;;23.49;55.07;101038.50;4989203;28;20042;-83
2022/08/14 07:06:53;;;;;;;0.80;0.77;;;;;;;23.79;53.73;101039.97;4994223;28;20049;-84
2022/08/14 07:09:20;;;;;;;0.35;0.35;;;;;;;23.86;54.04;101041.25;5001202;28;20041;-83
2022/08/14 07:11:46;;;;;;;0.15;0.15;;;;;;;23.96;53.57;101038.75;4994608;28;20037;-82
2022/08/14 07:14:12;;;;;;;0.00;0.00;;;;;;;24.06;53.59;101030.81;4995448;28;20455;-83
2022/08/14 07:16:38;;;;;;;0.40;0.40;;;;;;;24.14;53.38;101025.69;4998087;28;20099;-82
2022/08/14 07:19:07;;;;;;;0.20;0.20;;;;;;;24.22;53.10;101028.72;4996221;28;20179;-82
2022/08/14 07:21:33;;;;;;;0.20;0.20;;;;;;;24.33;52.97;101024.31;5001790;28;20038;-83
2022/08/14 07:24:00;;;;;;;0.10;0.10;;;;;;;24.42;53.08;101025.47;5001557;28;20060;-82
2022/08/14 07:26:26;;;;;;;3.60;0.40;;;;;;;24.48;53.03;101027.72;5003816;28;20030;-81
2022/08/14 07:28:52;;;;;;;0.20;0.20;;;;;;;24.57;52.65;101023.44;5004956;28;20053;-82
2022/08/14 07:31:18;;;;;;;0.10;0.10;;;;;;;24.68;52.32;101027.06;4991068;28;20376;-81
2022/08/14 07:33:47;;;;;;;0.65;0.65;;;;;;;24.69;51.78;101023.38;4985160;28;20027;-82
2022/08/14 07:36:15;;;;;;;0.15;0.15;;;;;;;24.78;51.70;101027.22;4982228;28;20034;-82
2022/08/14 07:38:44;;;;;;;0.43;0.43;;;;;;;24.89;51.00;101030.97;4981254;28;20027;-81
2022/08/14 07:41:12;;;;;;;1.42;1.33;;;;;;;24.96;51.29;101029.47;4982113;28;20121;-82
2022/08/14 07:43:39;;;;;;;0.10;0.10;;;;;;;25.07;50.97;101020.53;4984125;28;20602;-81
2022/08/14 07:46:06;;;;;;;1.35;0.52;;;;;;;25.17;50.95;101018.78;4983202;28;20496;-81
2022/08/14 07:48:38;;;;;;;0.50;0.50;;;;;;;25.30;50.33;101022.28;4981085;28;20030;-81
2022/08/14 07:51:05;;;;;;;0.00;0.00;;;;;;;25.34;50.59;101026.44;4986503;28;20026;-81
2022/08/14 07:53:32;;;;;;;0.43;0.40;;;;;;;25.44;50.67;101015.75;4986401;28;20035;-81
2022/08/14 07:55:58;;;;;;;0.10;0.10;;;;;;;25.54;50.73;101017.75;4987465;28;20105;-81
2022/08/14 07:58:25;;;;;;;0.20;0.20;;;;;;;25.62;50.43;101021.56;4994176;28;20040;-81
2022/08/14 08:00:55;;;;;;;0.60;0.60;;;;;;;25.73;50.52;101023.38;4976831;28;20104;-81
2022/08/14 08:03:24;;;;;;;0.10;0.10;;;;;;;25.86;50.04;101016.94;4986969;28;20468;-81
2022/08/14 08:05:50;;;;;;;0.20;0.20;;;;;;;25.93;49.78;101010.03;4987501;28;20020;-81
2022/08/14 08:08:18;;;;;;;0.10;0.10;;;;;;;26.04;49.17;101010.00;4988032;28;20045;-81
2022/08/14 08:10:44;;;;;;;0.20;0.20;;;;;;;26.14;48.73;101002.00;4995636;28;20030;-81
2022/08/14 08:13:17;;;;;;;0.93;0.38;;;;;;;26.27;48.81;101001.81;4982701;28;20065;-82
2022/08/14 08:15:47;;;;;;;0.20;0.20;;;;;;;26.31;48.50;101001.44;4990814;28;20109;-81
2022/08/14 08:18:15;;;;;;;0.10;0.10;;;;;;;26.37;48.57;101002.78;4991865;28;21222;-82
2022/08/14 08:20:45;;;;;;;0.10;0.10;;;;;;;26.43;47.86;101004.09;4994369;28;20436;-81
2022/08/14 08:23:13;;;;;;;0.47;0.47;;;;;;;26.57;48.03;101000.22;4984710;28;20259;-81
2022/08/14 08:25:42;;;;;;;0.10;0.10;;;;;;;26.68;47.96;100989.28;4989945;28;20654;-81
2022/08/14 08:28:14;;;;;;;0.50;0.50;;;;;;;26.79;48.16;100996.53;4988353;28;20034;-81
2022/08/14 08:30:45;;;;;;;0.05;0.05;;;;;;;26.84;47.93;101002.44;4997663;28;20504;-81
2022/08/14 08:33:14;;;;;;;0.10;0.10;;;;;;;26.99;47.96;100992.06;4991580;28;20805;-81
2022/08/14 08:35:41;;;;;;;0.65;0.65;;;;;;;27.06;47.27;100995.13;4986516;28;20430;-83
2022/08/14 08:38:10;;;;;;;0.40;0.40;;;;;;;27.16;46.66;100989.75;4991642;28;20775;-83
2022/08/14 08:40:40;;;;;;;0.35;0.35;;;;;;;27.24;46.48;100987.19;4990068;28;20034;-82
2022/08/14 08:43:16;;;;;;;0.08;0.08;;;;;;;27.33;45.50;100974.63;4994491;28;20034;-82
2022/08/14 08:45:42;;;;;;;1.13;1.10;;;;;;;27.41;45.18;100981.13;4990166;28;20034;-83
2022/08/14 08:48:08;;;;;;;0.43;0.43;;;;;;;27.57;45.76;100977.06;5001662;28;20093;-82
2022/08/14 08:50:37;;;;;;;0.10;0.10;;;;;;;27.70;46.33;100971.34;4996429;28;20034;-82
2022/08/14 08:53:06;;;;;;;0.20;0.20;;;;;;;27.77;45.94;100972.53;4990138;28;20030;-82
2022/08/14 08:55:36;;;;;;;0.40;0.40;;;;;;;27.91;46.22;100968.53;4984601;28;20064;-83
2022/08/14 08:58:06;;;;;;;0.38;0.38;;;;;;;28.05;46.24;100959.09;4990953;28;20419;-83
2022/08/14 09:00:35;;;;;;;0.65;0.65;;;;;;;28.12;45.75;100970.31;4988987;28;20031;-83
2022/08/14 09:03:05;;;;;;;0.55;0.47;;;;;;;28.20;45.34;100965.00;4983999;28;20027;-81
2022/08/14 09:05:33;;;;;;;0.00;0.00;;;;;;;28.32;45.73;100963.84;4986988;28;20034;-82
2022/08/14 09:08:17;;;;;;;0.10;0.10;;;;;;;28.53;45.34;100968.28;4984412;28;20061;-82
2022/08/14 09:10:44;;;;;;;0.00;0.00;;;;;;;28.56;45.32;100967.97;4982936;28;20031;-83
2022/08/14 09:13:11;;;;;;;0.10;0.10;;;;;;;28.64;44.30;100962.69;4986942;28;20031;-84
2022/08/14 09:15:40;;;;;;;0.10;0.10;;;;;;;28.71;43.64;100955.66;4988267;28;20069;-83
2022/08/14 09:18:08;;;;;;;0.35;0.35;;;;;;;28.81;44.18;100957.50;4983445;28;20126;-83
2022/08/14 09:20:36;;;;;;;0.38;0.20;;;;;;;28.88;44.02;100958.63;4986718;28;20031;-83
2022/08/14 09:23:03;;;;;;;0.40;0.32;;;;;;;29.02;44.05;100962.75;4994111;28;20388;-83
2022/08/14 09:25:30;;;;;;;0.38;0.38;;;;;;;29.13;44.08;100964.44;5000917;28;20094;-83
2022/08/14 09:27:56;;;;;;;0.10;0.10;;;;;;;29.17;43.37;100954.94;4993317;28;20039;-83
2022/08/14 09:30:22;;;;;;;0.20;0.20;;;;;;;29.29;44.72;100952.94;4981963;28;20036;-83
2022/08/14 09:33:21;;;;;;;0.28;0.28;;;;;;;29.48;42.56;100950.06;4977458;28;20041;-82
2022/08/14 09:36:27;;;;;;;0.10;0.10;;;;;;;29.56;42.71;100949.34;4982443;28;20042;-83
2022/08/14 09:45:11;;;;;;;0.80;0.80;;;;;;;29.92;42.85;100933.03;5077710;27;20417;-81
2022/08/14 09:50:21;;;;;;;1.05;0.95;;;;;;;30.07;42.84;100927.88;5111222;27;1230114;-83
2022/08/14 09:52:52;;;;;;;0.20;0.20;;;;;;;30.22;42.75;100922.72;5125309;28;20076;-83
2022/08/14 09:55:20;;;;;;;0.43;0.43;;;;;;;30.32;42.73;100918.00;5126404;28;20038;-83
2022/08/14 09:57:46;;;;;;;0.30;0.25;;;;;;;30.40;42.71;100910.91;5125789;28;20050;-83
2022/08/14 10:00:14;;;;;;;0.30;0.30;;;;;;;30.49;42.42;100913.56;5125081;28;20520;-83
2022/08/14 10:02:52;;;;;;;0.45;0.45;;;;;;;30.65;40.89;100910.06;5105917;28;20038;-84
2022/08/14 10:05:29;;;;;;;0.10;0.10;;;;;;;30.77;40.49;100907.94;5112275;28;20031;-85
2022/08/14 10:07:56;;;;;;;0.30;0.30;;;;;;;30.82;39.86;100896.50;5109564;28;20024;-83
2022/08/14 10:10:39;;;;;;;1.65;1.15;;;;;;;30.95;39.31;100896.06;5113675;28;20099;-82
2022/08/14 10:13:20;;;;;;;2.63;0.30;;;;;;;31.02;39.51;100893.50;5127168;28;20027;-82
2022/08/14 10:15:48;;;;;;;0.10;0.10;;;;;;;31.12;39.82;100892.41;5126783;28;20031;-82
2022/08/14 10:18:16;;;;;;;0.10;0.10;;;;;;;31.25;38.05;100891.94;5122724;28;20114;-82
2022/08/14 10:21:00;;;;;;;0.20;0.20;;;;;;;31.41;39.94;100884.81;5121543;28;20032;-81
2022/08/14 10:23:48;;;;;;;0.10;0.10;;;;;;;31.41;38.45;100882.06;5129125;28;20027;-82
2022/08/14 10:26:17;;;;;;;0.13;0.13;;;;;;;31.46;38.73;100876.94;5128312;27;20055;-82
2022/08/14 10:28:50;;;;;;;0.00;0.00;;;;;;;31.43;38.40;100885.50;5127857;28;20027;-82
2022/08/14 10:34:18;;;;;;;0.60;0.60;;;;;;;31.59;35.69;100877.31;5138765;27;20409;-82
2022/08/14 10:36:47;;;;;;;0.40;0.40;;;;;;;31.69;37.81;100876.34;5124714;28;20528;-82
2022/08/14 10:39:18;;;;;;;0.10;0.10;;;;;;;31.77;38.07;100874.47;5120661;28;20032;-83
2022/08/14 10:41:46;;;;;;;3.72;0.73;;;;;;;31.92;38.19;100869.16;5119041;28;20079;-81
2022/08/14 10:44:15;;;;;;;0.28;0.28;;;;;;;32.00;37.53;100865.59;5132730;28;20030;-82
2022/08/14 10:46:51;;;;;;;0.10;0.10;;;;;;;32.09;37.33;100861.81;5127544;28;20035;-82
2022/08/14 10:52:04;;;;;;;0.05;0.05;;;;;;;32.30;35.51;100854.97;5064940;27;20396;-82
2022/08/14 10:54:33;;;;;;;0.82;0.82;;;;;;;32.42;35.31;100861.78;5060830;28;20021;-82
2022/08/14 10:59:55;;;;;;;0.10;0.10;;;;;;;32.66;35.35;100856.44;5121536;27;20407;-82
2022/08/14 11:02:29;;;;;;;0.10;0.10;;;;;;;32.78;35.98;100848.72;5095967;28;20040;-82
2022/08/14 11:07:42;;;;;;;0.20;0.20;;;;;;;33.01;34.03;100846.03;5041310;28;20398;-83
2022/08/14 11:10:11;;;;;;;0.10;0.10;;;;;;;33.14;34.44;100837.25;5041143;28;20030;-82
2022/08/14 11:12:47;;;;;;;0.25;0.25;;;;;;;33.24;33.38;100835.13;5037533;28;20097;-83
2022/08/14 11:15:21;;;;;;;0.20;0.20;;;;;;;33.32;34.09;100829.63;5037099;28;20025;-82
2022/08/14 11:17:49;;;;;;;1.38;0.60;;;;;;;33.36;32.39;100827.34;5039759;28;20087;-83
2022/08/14 11:20:17;;;;;;;0.10;0.10;;;;;;;33.46;32.83;100824.38;5040326;28;20029;-82
2022/08/14 11:22:46;;;;;;;0.10;0.10;;;;;;;33.50;32.41;100821.09;5039479;28;20053;-83
2022/08/14 11:25:15;;;;;;;0.10;0.10;;;;;;;33.60;32.20;100830.97;5043602;28;20072;-83
2022/08/14 11:27:45;;;;;;;0.20;0.20;;;;;;;33.69;31.85;100829.88;5039906;28;20047;-82
2022/08/14 11:30:15;;;;;;;0.13;0.13;;;;;;;33.72;29.57;100829.50;5039533;28;20040;-83
2022/08/14 11:32:47;;;;;;;0.20;0.20;;;;;;;33.88;31.58;100833.19;5043388;28;20033;-80
2022/08/14 11:35:18;;;;;;;0.40;0.40;;;;;;;33.94;31.51;100832.47;5041945;28;20064;-84
2022/08/14 11:38:07;;;;;;;0.10;0.10;;;;;;;34.12;27.49;100829.34;5044982;28;20025;-83
2022/08/14 11:40:36;;;;;;;0.20;0.20;;;;;;;34.12;28.04;100829.34;5044983;28;20037;-83
2022/08/14 11:43:06;;;;;;;1.17;1.15;;;;;;;34.21;29.01;100827.38;5042214;28;20030;-83
2022/08/14 11:45:34;;;;;;;1.05;0.88;;;;;;;34.27;28.82;100826.63;5038368;28;20067;-83
2022/08/14 11:48:15;;;;;;;0.10;0.10;;;;;;;34.33;29.11;100817.63;5035944;28;20403;-84
2022/08/14 11:50:41;;;;;;;0.10;0.10;;;;;;;34.36;28.84;100814.56;5040072;28;20400;-83
2022/08/14 11:53:19;;;;;;;0.80;0.75;;;;;;;34.41;28.51;100801.09;5049957;28;20033;-81
2022/08/14 11:55:46;;;;;;;0.10;0.10;;;;;;;34.43;28.36;100807.25;5044795;28;20018;-81
2022/08/14 11:58:15;;;;;;;0.10;0.10;;;;;;;34.56;28.39;100792.84;5042010;28;20573;-80
2022/08/14 12:03:44;;;;;;;0.38;0.32;;;;;;;34.85;29.37;100784.75;5182249;27;20405;-82
2022/08/14 12:06:17;;;;;;;0.68;0.40;;;;;;;34.89;29.15;100784.16;5159987;27;20050;-84
2022/08/14 12:08:45;;;;;;;0.35;0.35;;;;;;;34.95;29.16;100779.81;5149995;27;20016;-81
2022/08/14 12:11:14;;;;;;;0.10;0.10;;;;;;;34.96;27.26;100768.59;5146309;27;20028;-84
2022/08/14 12:13:43;;;;;;;0.00;0.00;;;;;;;35.08;28.95;100768.09;5148439;27;20113;-84
2022/08/14 12:16:12;;;;;;;7.72;0.95;;;;;;;35.11;27.52;100776.81;5152836;27;20051;-82
2022/08/14 12:18:41;;;;;;;0.32;0.20;;;;;;;35.19;28.35;100762.06;5145932;27;20300;-81
2022/08/14 12:21:19;;;;;;;0.20;0.20;;;;;;;35.30;28.71;100749.69;5148470;27;20087;-83